Time;durP1;ratioP1;P1;durP2;ratioP2;P2;SDS_P1;SDS_P2;PMS_P1;PMS_P2;Temp;Humidity;BMP_temperature;BMP_pressure;BME280_temperature;BME280_humidity;BME280_pressure;Samples;Min_cycle;Max_cycle;Signal;HPM_P1;HPM_P2
2023/01/12 00:01:56;;;;;;;;;;;7.30;99.90;;;;;;5026150;28;19925;-74
2023/01/12 00:04:22;;;;;;;;;;;7.30;99.90;;;;;;5025720;28;20378;-74
2023/01/12 00:06:48;;;;;;;;;;;7.30;99.90;;;;;;5020459;28;20502;-74
2023/01/12 00:09:13;;;;;;;;;;;7.30;99.90;;;;;;5025339;28;19921;-74
2023/01/12 00:11:39;;;;;;;;;;;7.30;99.90;;;;;;5018764;28;20189;-74
2023/01/12 00:14:05;;;;;;;;;;;7.30;99.90;;;;;;5004431;28;19992;-74
2023/01/12 00:16:34;;;;;;;;;;;7.20;99.90;;;;;;5009871;28;19932;-74
2023/01/12 00:19:07;;;;;;;;;;;7.20;99.90;;;;;;5009053;28;19929;-74
2023/01/12 00:21:38;;;;;;;;;;;7.30;99.90;;;;;;5022582;28;19932;-74
2023/01/12 00:24:06;;;;;;;;;;;7.30;99.90;;;;;;5035150;28;19929;-74
2023/01/12 00:26:31;;;;;;;;;;;7.30;99.90;;;;;;4992660;28;19967;-74
2023/01/12 00:28:57;;;;;;;;;;;7.20;99.90;;;;;;5005798;28;19956;-73
2023/01/12 00:31:22;;;;;;;;;;;7.30;99.90;;;;;;5018988;28;19956;-74
2023/01/12 00:33:48;;;;;;;;;;;7.30;99.90;;;;;;5036565;28;19925;-74
2023/01/12 00:36:15;;;;;;;;;;;7.30;99.90;;;;;;5025384;28;20382;-74
2023/01/12 00:38:41;;;;;;;;;;;7.30;99.90;;;;;;5007709;28;20065;-73
2023/01/12 00:41:07;;;;;;;;;;;7.40;99.90;;;;;;5008245;28;19921;-74
2023/01/12 00:46:17;;;;;;;;;;;7.40;99.90;;;;;;5023093;28;19936;-73
2023/01/12 00:48:43;;;;;;;;;;;7.40;99.90;;;;;;5035847;28;19921;-73
2023/01/12 00:51:08;;;;;;;;;;;7.30;99.90;;;;;;4992829;28;19921;-73
2023/01/12 00:53:34;;;;;;;;;;;7.40;99.90;;;;;;5023443;28;19925;-73
2023/01/12 00:56:03;;;;;;;;;;;7.30;99.90;;;;;;5006271;28;19947;-73
2023/01/12 00:58:28;;;;;;;;;;;7.40;99.90;;;;;;5036111;28;19928;-73
2023/01/12 01:00:55;;;;;;;;;;;7.40;99.90;;;;;;5021804;28;20007;-74
2023/01/12 01:03:20;;;;;;;;;;;7.50;99.90;;;;;;5006003;28;19944;-74
2023/01/12 01:05:46;;;;;;;;;;;7.50;99.90;;;;;;5007593;28;19929;-73
2023/01/12 01:08:11;;;;;;;;;;;7.40;99.90;;;;;;5022714;28;19921;-74
2023/01/12 01:10:37;;;;;;;;;;;7.40;99.90;;;;;;5024663;28;20387;-74
2023/01/12 01:13:02;;;;;;;;;;;7.40;99.90;;;;;;5017088;28;19921;-74
2023/01/12 01:15:28;;;;;;;;;;;7.40;99.90;;;;;;5035347;28;19944;-73
2023/01/12 01:17:54;;;;;;;;;;;7.40;99.90;;;;;;5022427;28;19975;-73
2023/01/12 01:20:20;;;;;;;;;;;7.50;99.90;;;;;;5008321;28;19925;-73
2023/01/12 01:22:48;;;;;;;;;;;7.40;99.90;;;;;;5005329;28;19922;-74
2023/01/12 01:25:14;;;;;;;;;;;7.40;99.90;;;;;;5008393;28;20042;-73
2023/01/12 01:27:39;;;;;;;;;;;7.40;99.90;;;;;;4990815;28;20506;-73
2023/01/12 01:30:05;;;;;;;;;;;7.40;99.90;;;;;;5023471;28;20016;-73
2023/01/12 01:32:31;;;;;;;;;;;7.50;99.90;;;;;;5022953;28;19935;-73
2023/01/12 01:34:56;;;;;;;;;;;7.50;99.90;;;;;;5024801;28;19921;-73
2023/01/12 01:37:22;;;;;;;;;;;7.40;99.90;;;;;;5036201;28;20371;-73
2023/01/12 01:39:48;;;;;;;;;;;7.50;99.90;;;;;;5007326;28;19921;-73
2023/01/12 01:42:26;;;;;;;;;;;7.50;99.90;;;;;;5034771;28;19928;-73
2023/01/12 01:44:53;;;;;;;;;;;7.60;99.90;;;;;;5008102;28;19925;-73
2023/01/12 01:47:26;;;;;;;;;;;7.50;99.90;;;;;;5027892;28;19944;-73
2023/01/12 01:49:53;;;;;;;;;;;7.50;99.90;;;;;;5024679;28;19921;-73
2023/01/12 01:52:22;;;;;;;;;;;7.50;99.90;;;;;;5009713;28;19921;-74
2023/01/12 01:54:52;;;;;;;;;;;7.50;99.90;;;;;;5038076;28;19975;-73
2023/01/12 01:57:18;;;;;;;;;;;7.50;99.90;;;;;;5027660;28;19925;-73
2023/01/12 01:59:49;;;;;;;;;;;7.50;99.90;;;;;;5026993;28;19925;-74
2023/01/12 02:02:16;;;;;;;;;;;7.40;99.90;;;;;;5038282;28;19925;-73
2023/01/12 02:04:44;;;;;;;;;;;7.50;99.90;;;;;;5039089;28;19980;-73
2023/01/12 02:07:10;;;;;;;;;;;7.50;99.90;;;;;;5011430;28;19921;-73
2023/01/12 02:09:36;;;;;;;;;;;7.50;99.90;;;;;;5039573;28;19937;-74
2023/01/12 02:17:51;;;;;;;;;;;7.60;99.90;;;;;;5026646;28;20310;-74
2023/01/12 02:20:29;;;;;;;;;;;7.60;99.90;;;;;;5025321;28;19936;-74
2023/01/12 02:23:02;;;;;;;;;;;7.60;99.90;;;;;;5027930;28;19925;-75
2023/01/12 02:25:47;;;;;;;;;;;7.60;99.90;;;;;;5024781;28;19925;-74
2023/01/12 02:28:15;;;;;;;;;;;7.50;99.90;;;;;;5022227;28;20004;-74
2023/01/12 02:31:00;;;;;;;;;;;7.50;99.90;;;;;;5027209;28;20444;-74
2023/01/12 02:33:49;;;;;;;;;;;7.50;99.90;;;;;;5039390;28;19925;-74
2023/01/12 02:36:27;;;;;;;;;;;7.50;99.90;;;;;;5000682;28;19927;-74
2023/01/12 02:38:55;;;;;;;;;;;7.60;99.90;;;;;;5025855;28;20331;-74
2023/01/12 02:44:53;;;;;;;;;;;7.70;99.90;;;;;;5026690;28;19928;-74
2023/01/12 02:47:26;;;;;;;;;;;7.70;99.90;;;;;;5016888;28;19929;-74
2023/01/12 02:49:54;;;;;;;;;;;7.60;99.90;;;;;;5021327;28;19925;-74
2023/01/12 02:52:23;;;;;;;;;;;7.60;99.90;;;;;;5037179;28;19925;-74
2023/01/12 02:54:49;;;;;;;;;;;7.60;99.90;;;;;;5024759;28;19979;-74
2023/01/12 02:57:15;;;;;;;;;;;7.60;99.90;;;;;;5036997;28;20059;-73
2023/01/12 02:59:42;;;;;;;;;;;7.60;99.90;;;;;;5010061;28;20402;-73
2023/01/12 03:02:15;;;;;;;;;;;7.60;99.90;;;;;;5025865;28;20417;-74
2023/01/12 03:04:40;;;;;;;;;;;7.50;99.90;;;;;;5034963;28;19940;-74
2023/01/12 03:07:12;;;;;;;;;;;7.50;99.90;;;;;;5036097;28;19921;-74
2023/01/12 03:09:46;;;;;;;;;;;7.50;99.90;;;;;;5038250;28;20349;-75
2023/01/12 03:12:13;;;;;;;;;;;7.50;99.90;;;;;;5026073;28;19928;-74
2023/01/12 03:14:43;;;;;;;;;;;7.50;99.90;;;;;;5026051;28;19966;-74
2023/01/12 03:17:30;;;;;;;;;;;7.50;99.90;;;;;;5009289;28;19932;-75
2023/01/12 03:19:59;;;;;;;;;;;7.60;99.90;;;;;;5024594;28;19966;-75
2023/01/12 03:22:24;;;;;;;;;;;7.60;99.90;;;;;;5023761;28;20008;-75
2023/01/12 03:24:55;;;;;;;;;;;7.60;99.90;;;;;;5041117;28;20066;-75
2023/01/12 03:27:22;;;;;;;;;;;7.60;99.90;;;;;;5024273;28;19925;-75
2023/01/12 03:29:53;;;;;;;;;;;7.70;99.90;;;;;;5025530;28;19921;-75
2023/01/12 03:32:20;;;;;;;;;;;7.70;99.90;;;;;;5022320;28;19960;-74
2023/01/12 03:34:46;;;;;;;;;;;7.70;99.90;;;;;;5025825;28;19921;-75
2023/01/12 03:37:12;;;;;;;;;;;7.70;99.90;;;;;;5024102;28;20417;-76
2023/01/12 03:39:45;;;;;;;;;;;7.70;99.90;;;;;;5013016;28;19925;-76
2023/01/12 03:42:14;;;;;;;;;;;7.70;99.90;;;;;;5025663;28;20274;-76
2023/01/12 03:44:55;;;;;;;;;;;7.70;99.90;;;;;;5025388;28;20015;-76
2023/01/12 03:47:23;;;;;;;;;;;7.70;99.90;;;;;;5036094;28;19971;-76
2023/01/12 03:49:54;;;;;;;;;;;7.70;99.90;;;;;;5029111;28;19921;-76
2023/01/12 03:52:21;;;;;;;;;;;7.70;99.90;;;;;;5010927;28;19960;-75
2023/01/12 03:54:48;;;;;;;;;;;7.70;99.90;;;;;;5024367;28;19928;-75
2023/01/12 03:57:15;;;;;;;;;;;7.70;99.90;;;;;;5009841;28;20047;-75
2023/01/12 03:59:42;;;;;;;;;;;7.80;99.90;;;;;;5025592;28;20318;-75
2023/01/12 04:02:08;;;;;;;;;;;7.80;99.90;;;;;;5040164;28;20468;-75
2023/01/12 04:04:34;;;;;;;;;;;7.70;99.90;;;;;;5009443;28;19970;-75
2023/01/12 04:07:00;;;;;;;;;;;7.80;99.90;;;;;;5035845;28;19925;-75
2023/01/12 04:09:29;;;;;;;;;;;7.90;99.90;;;;;;5024611;28;19921;-75
2023/01/12 04:12:10;;;;;;;;;;;7.80;99.90;;;;;;4991050;28;20397;-75
2023/01/12 04:14:39;;;;;;;;;;;7.90;99.90;;;;;;5024938;28;20362;-75
2023/01/12 04:17:05;;;;;;;;;;;7.80;99.90;;;;;;5036600;28;19931;-75
2023/01/12 04:19:31;;;;;;;;;;;7.80;99.90;;;;;;5037159;28;19929;-76
2023/01/12 04:24:43;;;;;;;;;;;7.90;99.90;;;;;;5035239;28;19925;-75
2023/01/12 04:27:09;;;;;;;;;;;7.90;99.90;;;;;;5010673;28;19932;-76
2023/01/12 04:29:34;;;;;;;;;;;7.90;99.90;;;;;;5025839;28;19979;-76
2023/01/12 04:32:00;;;;;;;;;;;7.80;99.90;;;;;;4993075;28;20325;-76
2023/01/12 04:34:25;;;;;;;;;;;7.80;99.90;;;;;;5039727;28;20310;-75
2023/01/12 04:36:51;;;;;;;;;;;7.90;99.90;;;;;;5016743;28;19922;-75
2023/01/12 04:39:17;;;;;;;;;;;7.90;99.90;;;;;;5024951;28;19964;-75
2023/01/12 04:41:42;;;;;;;;;;;7.90;99.90;;;;;;5025213;28;21169;-75
2023/01/12 04:44:08;;;;;;;;;;;7.90;99.90;;;;;;5028966;28;19922;-76
2023/01/12 04:46:33;;;;;;;;;;;7.90;99.90;;;;;;5023567;28;19933;-76
2023/01/12 04:48:59;;;;;;;;;;;7.80;99.90;;;;;;5006252;28;19921;-75
2023/01/12 04:51:25;;;;;;;;;;;7.90;99.90;;;;;;5006464;28;19925;-75
2023/01/12 04:53:50;;;;;;;;;;;7.90;99.90;;;;;;5022973;28;19971;-75
2023/01/12 04:56:16;;;;;;;;;;;7.90;99.90;;;;;;4985139;28;19929;-76
2023/01/12 04:58:42;;;;;;;;;;;7.90;99.90;;;;;;5037639;28;19968;-75
2023/01/12 05:01:12;;;;;;;;;;;7.90;99.90;;;;;;5010226;28;19921;-75
2023/01/12 05:03:38;;;;;;;;;;;7.80;99.90;;;;;;5013180;28;19932;-75
2023/01/12 05:06:04;;;;;;;;;;;7.80;99.90;;;;;;5027536;28;19929;-75
2023/01/12 05:11:14;;;;;;;;;;;7.80;99.90;;;;;;5048110;28;19929;-75
2023/01/12 05:13:40;;;;;;;;;;;7.80;99.90;;;;;;5042815;28;19921;-76
2023/01/12 05:16:10;;;;;;;;;;;7.80;99.90;;;;;;5013026;28;19974;-77
2023/01/12 05:18:36;;;;;;;;;;;7.80;99.90;;;;;;5030485;28;19928;-76
2023/01/12 05:21:02;;;;;;;;;;;7.70;99.90;;;;;;5013604;28;20004;-77
2023/01/12 05:23:27;;;;;;;;;;;7.80;99.90;;;;;;5043663;28;19921;-76
2023/01/12 05:25:56;;;;;;;;;;;7.80;99.90;;;;;;5029652;28;19952;-77
2023/01/12 05:28:23;;;;;;;;;;;7.70;99.90;;;;;;5031644;28;20000;-77
2023/01/12 05:30:48;;;;;;;;;;;7.70;99.90;;;;;;5010937;28;20387;-77
2023/01/12 05:33:15;;;;;;;;;;;7.70;99.90;;;;;;4997673;28;19928;-77
2023/01/12 05:35:40;;;;;;;;;;;7.70;99.90;;;;;;5029261;28;19925;-77
2023/01/12 05:38:06;;;;;;;;;;;7.70;99.90;;;;;;5019027;28;20013;-77
2023/01/12 05:40:32;;;;;;;;;;;7.70;99.90;;;;;;5039667;28;19925;-77
2023/01/12 05:45:41;;;;;;;;;;;7.60;99.90;;;;;;5031326;28;19929;-77
2023/01/12 05:48:08;;;;;;;;;;;7.60;99.90;;;;;;5038592;28;19921;-77
2023/01/12 05:50:34;;;;;;;;;;;7.60;99.90;;;;;;5012603;28;19928;-77
2023/01/12 05:53:02;;;;;;;;;;;7.60;99.90;;;;;;5025148;28;19921;-76
2023/01/12 05:55:29;;;;;;;;;;;7.60;99.90;;;;;;4994289;28;19921;-77
2023/01/12 05:57:55;;;;;;;;;;;7.60;99.90;;;;;;5037451;28;20004;-76
2023/01/12 06:00:21;;;;;;;;;;;7.60;99.90;;;;;;4994224;28;20429;-76
2023/01/12 06:02:46;;;;;;;;;;;7.60;99.90;;;;;;5028204;28;19933;-78
2023/01/12 06:05:12;;;;;;;;;;;7.60;99.90;;;;;;5047259;28;19951;-77
2023/01/12 06:07:37;;;;;;;;;;;7.70;99.90;;;;;;5028481;28;19972;-76
2023/01/12 06:10:06;;;;;;;;;;;7.60;99.90;;;;;;5025459;28;19925;-77
2023/01/12 06:15:16;;;;;;;;;;;7.70;99.90;;;;;;5041953;28;19921;-77
2023/01/12 06:17:42;;;;;;;;;;;7.80;99.90;;;;;;5012488;28;19928;-76
2023/01/12 06:20:08;;;;;;;;;;;7.80;99.90;;;;;;5012367;28;19921;-77
2023/01/12 06:22:41;;;;;;;;;;;7.80;99.90;;;;;;5011717;28;19925;-76
2023/01/12 06:25:07;;;;;;;;;;;7.80;99.90;;;;;;5014418;28;19968;-76
2023/01/12 06:27:34;;;;;;;;;;;7.80;99.90;;;;;;5011300;28;19965;-76
2023/01/12 06:30:00;;;;;;;;;;;7.90;99.90;;;;;;5035201;28;19929;-76
2023/01/12 06:32:26;;;;;;;;;;;7.90;99.90;;;;;;5045510;28;20337;-76
2023/01/12 06:34:52;;;;;;;;;;;7.80;99.90;;;;;;5045891;28;19925;-77
2023/01/12 06:37:18;;;;;;;;;;;7.90;99.90;;;;;;5042935;28;19936;-77
2023/01/12 06:39:43;;;;;;;;;;;7.90;99.90;;;;;;5033168;28;20350;-77
2023/01/12 06:42:27;;;;;;;;;;;7.90;99.90;;;;;;5015246;28;19936;-76
2023/01/12 06:44:57;;;;;;;;;;;7.80;99.90;;;;;;5009065;28;20024;-78
2023/01/12 06:47:23;;;;;;;;;;;7.90;99.90;;;;;;5030959;28;19968;-77
2023/01/12 06:49:50;;;;;;;;;;;8.00;99.90;;;;;;5033721;28;20014;-76
2023/01/12 06:52:20;;;;;;;;;;;8.00;99.90;;;;;;5016722;28;19928;-77
2023/01/12 06:54:46;;;;;;;;;;;8.00;99.90;;;;;;5012696;28;19921;-76
2023/01/12 06:57:12;;;;;;;;;;;8.00;99.90;;;;;;4999562;28;19929;-76
2023/01/12 06:59:38;;;;;;;;;;;8.10;99.90;;;;;;4997702;28;19957;-76
2023/01/12 07:02:03;;;;;;;;;;;8.10;99.90;;;;;;5030557;28;19925;-76
2023/01/12 07:04:29;;;;;;;;;;;8.10;99.90;;;;;;5016073;28;19952;-76
2023/01/12 07:06:55;;;;;;;;;;;8.10;99.90;;;;;;5034664;28;19909;-76
2023/01/12 07:09:21;;;;;;;;;;;8.20;99.90;;;;;;5066094;28;19933;-77
2023/01/12 07:11:46;;;;;;;;;;;8.20;99.90;;;;;;5060197;28;19913;-76
2023/01/12 07:14:12;;;;;;;;;;;8.30;99.90;;;;;;5052571;28;20740;-76
2023/01/12 07:16:39;;;;;;;;;;;8.30;99.90;;;;;;5067907;28;19948;-76
2023/01/12 07:19:04;;;;;;;;;;;8.30;99.90;;;;;;5022396;28;20007;-76
2023/01/12 07:21:30;;;;;;;;;;;8.30;99.90;;;;;;5019275;28;19929;-76
2023/01/12 07:23:55;;;;;;;;;;;8.40;99.90;;;;;;5040180;28;19947;-76
2023/01/12 07:26:21;;;;;;;;;;;8.40;99.90;;;;;;5026453;28;19979;-75
2023/01/12 07:28:47;;;;;;;;;;;8.40;99.90;;;;;;5027022;28;20446;-75
2023/01/12 07:31:12;;;;;;;;;;;8.40;99.90;;;;;;5041290;28;19932;-75
2023/01/12 07:33:38;;;;;;;;;;;8.50;99.90;;;;;;5025852;28;19921;-76
2023/01/12 07:36:04;;;;;;;;;;;8.40;99.90;;;;;;5013254;28;19921;-75
2023/01/12 07:38:30;;;;;;;;;;;8.50;99.90;;;;;;5012359;28;19921;-75
2023/01/12 07:40:59;;;;;;;;;;;8.50;99.90;;;;;;5028010;28;19925;-75
2023/01/12 07:43:25;;;;;;;;;;;8.50;99.90;;;;;;5009511;28;20373;-75
2023/01/12 07:45:50;;;;;;;;;;;8.50;99.90;;;;;;4993298;28;20016;-75
2023/01/12 07:48:16;;;;;;;;;;;8.50;99.90;;;;;;5040952;28;19921;-75
2023/01/12 07:50:42;;;;;;;;;;;8.50;99.90;;;;;;5010164;28;19922;-75
2023/01/12 07:53:07;;;;;;;;;;;8.50;99.90;;;;;;5026187;28;19928;-75
2023/01/12 07:55:33;;;;;;;;;;;8.50;99.90;;;;;;5023996;28;20007;-75
2023/01/12 07:58:00;;;;;;;;;;;8.50;99.90;;;;;;5040179;28;19925;-75
2023/01/12 08:00:26;;;;;;;;;;;8.50;99.90;;;;;;5024790;28;20391;-75
2023/01/12 08:02:52;;;;;;;;;;;8.60;99.90;;;;;;5010763;28;19935;-75
2023/01/12 08:05:19;;;;;;;;;;;8.60;99.90;;;;;;5022955;28;19929;-76
2023/01/12 08:07:44;;;;;;;;;;;8.60;99.90;;;;;;5009131;28;19921;-76
2023/01/12 08:10:11;;;;;;;;;;;8.60;99.90;;;;;;5008183;28;19921;-77
2023/01/12 08:12:37;;;;;;;;;;;8.60;99.90;;;;;;5022027;28;20004;-76
2023/01/12 08:15:03;;;;;;;;;;;8.60;99.90;;;;;;5023095;28;20577;-76
2023/01/12 08:17:32;;;;;;;;;;;9.20;99.90;;;;;;5020352;28;19921;-77
2023/01/12 08:20:01;;;;;;;;;;;8.60;99.90;;;;;;5009270;28;19960;-76
2023/01/12 08:22:30;;;;;;;;;;;8.60;99.90;;;;;;5020690;28;19992;-75
2023/01/12 08:25:02;;;;;;;;;;;8.60;99.90;;;;;;5005735;28;19926;-76
2023/01/12 08:27:29;;;;;;;;;;;8.60;99.90;;;;;;5018795;28;19969;-76
2023/01/12 08:30:00;;;;;;;;;;;8.70;99.90;;;;;;5005513;28;20363;-77
2023/01/12 08:32:27;;;;;;;;;;;8.70;99.90;;;;;;5027884;28;20012;-76
2023/01/12 08:34:53;;;;;;;;;;;8.70;99.90;;;;;;5029387;28;20379;-77
2023/01/12 08:37:21;;;;;;;;;;;8.70;99.90;;;;;;5012228;28;19921;-77
2023/01/12 08:39:47;;;;;;;;;;;8.70;99.90;;;;;;5024554;28;19921;-77
2023/01/12 08:42:13;;;;;;;;;;;8.80;99.90;;;;;;4987892;28;20283;-76
2023/01/12 08:44:41;;;;;;;;;;;8.80;99.90;;;;;;5011462;28;19929;-76
2023/01/12 08:47:14;;;;;;;;;;;8.80;99.90;;;;;;5033359;28;19933;-77
2023/01/12 08:49:39;;;;;;;;;;;8.80;99.90;;;;;;5011049;28;19921;-78
2023/01/12 08:52:05;;;;;;;;;;;8.80;99.90;;;;;;5005840;28;19944;-77
2023/01/12 08:54:31;;;;;;;;;;;8.80;99.90;;;;;;5003123;28;19925;-78
2023/01/12 08:56:56;;;;;;;;;;;8.80;99.90;;;;;;5007631;28;19922;-77
2023/01/12 08:59:22;;;;;;;;;;;8.90;99.90;;;;;;5023750;28;19921;-77
2023/01/12 09:01:51;;;;;;;;;;;8.90;99.90;;;;;;5006293;28;19925;-77
2023/01/12 09:04:17;;;;;;;;;;;8.90;99.90;;;;;;5010091;28;19921;-77
2023/01/12 09:06:43;;;;;;;;;;;8.90;99.90;;;;;;5018047;28;19925;-78
2023/01/12 09:09:14;;;;;;;;;;;8.90;99.90;;;;;;5006141;28;19921;-77
2023/01/12 09:11:40;;;;;;;;;;;8.90;99.90;;;;;;5012172;28;19921;-77
2023/01/12 09:14:06;;;;;;;;;;;9.00;99.90;;;;;;5028428;28;20359;-77
2023/01/12 09:16:32;;;;;;;;;;;9.00;99.90;;;;;;5002637;28;19930;-77
2023/01/12 09:18:58;;;;;;;;;;;9.10;99.90;;;;;;5017422;28;19921;-77
2023/01/12 09:21:24;;;;;;;;;;;9.10;99.90;;;;;;5028164;28;20429;-77
2023/01/12 09:23:51;;;;;;;;;;;9.20;99.90;;;;;;5028338;28;19944;-76
2023/01/12 09:26:18;;;;;;;;;;;9.20;99.90;;;;;;5023846;28;19925;-76
2023/01/12 09:28:44;;;;;;;;;;;9.30;99.90;;;;;;5007116;28;20015;-76
2023/01/12 09:31:11;;;;;;;;;;;9.30;99.90;;;;;;5028604;28;19967;-77
2023/01/12 09:33:38;;;;;;;;;;;9.30;99.90;;;;;;5011678;28;20390;-77
2023/01/12 09:36:07;;;;;;;;;;;9.40;99.90;;;;;;5042997;28;19921;-77
2023/01/12 09:38:34;;;;;;;;;;;9.50;99.90;;;;;;5012258;28;19967;-77
2023/01/12 09:41:00;;;;;;;;;;;9.50;99.90;;;;;;5028285;28;19944;-77
2023/01/12 09:46:57;;;;;;;;;;;9.60;99.90;;;;;;5030294;28;20386;-76
2023/01/12 09:49:26;;;;;;;;;;;9.70;99.90;;;;;;5010525;28;19921;-79
2023/01/12 09:52:01;;;;;;;;;;;9.80;99.90;;;;;;5000080;28;20469;-80
2023/01/12 09:54:27;;;;;;;;;;;10.30;99.90;;;;;;5027390;28;19929;-79
2023/01/12 09:57:08;;;;;;;;;;;9.90;99.90;;;;;;5020030;28;19921;-79
2023/01/12 09:59:39;;;;;;;;;;;9.90;99.90;;;;;;5018819;28;19921;-77
2023/01/12 10:02:08;;;;;;;;;;;9.90;99.90;;;;;;5009748;28;19926;-78
2023/01/12 10:04:35;;;;;;;;;;;9.90;99.90;;;;;;5028111;28;19929;-77
2023/01/12 10:07:01;;;;;;;;;;;9.90;99.90;;;;;;5031837;28;19928;-77
2023/01/12 10:09:27;;;;;;;;;;;10.00;99.90;;;;;;5041788;28;19921;-75
2023/01/12 10:12:13;;;;;;;;;;;10.10;99.90;;;;;;5033228;28;20393;-76
2023/01/12 10:14:47;;;;;;;;;;;10.20;99.90;;;;;;5029071;28;19922;-76
2023/01/12 10:17:19;;;;;;;;;;;10.20;99.90;;;;;;5011054;28;19921;-76
2023/01/12 10:19:50;;;;;;;;;;;10.20;99.90;;;;;;5029799;28;20292;-75
2023/01/12 10:22:35;;;;;;;;;;;10.20;99.90;;;;;;5030211;28;19947;-75
2023/01/12 10:25:17;;;;;;;;;;;10.20;99.90;;;;;;5032659;28;19975;-75
2023/01/12 10:27:44;;;;;;;;;;;10.30;99.90;;;;;;5026837;28;19928;-75
2023/01/12 10:30:14;;;;;;;;;;;10.30;99.90;;;;;;5015267;28;19960;-75
2023/01/12 10:32:40;;;;;;;;;;;10.30;99.90;;;;;;5033320;28;20306;-75
2023/01/12 10:35:30;;;;;;;;;;;10.40;99.90;;;;;;5031381;28;19928;-75
2023/01/12 10:37:56;;;;;;;;;;;10.40;99.90;;;;;;5023124;28;20321;-75
2023/01/12 10:40:26;;;;;;;;;;;10.50;99.90;;;;;;5031053;28;19925;-75
2023/01/12 10:45:42;;;;;;;;;;;10.50;99.90;;;;;;5022866;28;20345;-75
2023/01/12 10:48:21;;;;;;;;;;;10.50;99.90;;;;;;4998297;28;19929;-75
2023/01/12 10:50:57;;;;;;;;;;;10.50;99.90;;;;;;5011702;28;19933;-75
2023/01/12 10:53:27;;;;;;;;;;;10.50;99.90;;;;;;5041479;28;19929;-75
2023/01/12 10:55:53;;;;;;;;;;;10.50;99.90;;;;;;5030777;28;20289;-74
2023/01/12 10:58:30;;;;;;;;;;;10.60;99.90;;;;;;5030899;28;19928;-73
2023/01/12 11:00:56;;;;;;;;;;;10.60;99.90;;;;;;5010615;28;19921;-75
2023/01/12 11:03:30;;;;;;;;;;;10.60;99.90;;;;;;5012352;28;20334;-75
2023/01/12 11:06:15;;;;;;;;;;;10.70;99.90;;;;;;5039043;28;20303;-74
2023/01/12 11:08:49;;;;;;;;;;;10.70;99.90;;;;;;5028591;28;20394;-75
2023/01/12 11:11:32;;;;;;;;;;;10.70;99.90;;;;;;5021937;28;19968;-74
2023/01/12 11:14:02;;;;;;;;;;;10.60;99.90;;;;;;4984206;28;20059;-75
2023/01/12 11:16:36;;;;;;;;;;;10.70;99.90;;;;;;5010384;28;19921;-74
2023/01/12 11:19:17;;;;;;;;;;;10.60;99.90;;;;;;5030179;28;19925;-74
2023/01/12 11:21:58;;;;;;;;;;;10.60;99.90;;;;;;5026813;28;19979;-75
2023/01/12 11:24:46;;;;;;;;;;;10.60;99.90;;;;;;5011675;28;20381;-74
2023/01/12 11:27:12;;;;;;;;;;;10.60;99.90;;;;;;5010282;28;20470;-74
2023/01/12 11:29:43;;;;;;;;;;;10.70;99.90;;;;;;5040121;28;19964;-74
2023/01/12 11:32:15;;;;;;;;;;;10.70;99.90;;;;;;5026486;28;19920;-74
2023/01/12 11:34:47;;;;;;;;;;;10.80;99.90;;;;;;5006065;28;20287;-74
2023/01/12 11:37:13;;;;;;;;;;;10.80;99.90;;;;;;5020955;28;19921;-74
2023/01/12 11:39:42;;;;;;;;;;;10.80;99.90;;;;;;5019912;28;19944;-74
2023/01/12 11:45:16;;;;;;;;;;;10.90;99.90;;;;;;5026784;28;19932;-74
2023/01/12 11:47:48;;;;;;;;;;;10.80;99.90;;;;;;5035934;28;19987;-74
2023/01/12 11:50:23;;;;;;;;;;;10.80;99.90;;;;;;5028533;28;19960;-74
2023/01/12 11:52:49;;;;;;;;;;;10.90;99.90;;;;;;5007647;28;19929;-74
2023/01/12 11:55:19;;;;;;;;;;;10.90;99.90;;;;;;4995317;28;20020;-74
2023/01/12 11:57:58;;;;;;;;;;;10.90;99.90;;;;;;5050448;28;19921;-74
2023/01/12 12:00:42;;;;;;;;;;;10.90;99.90;;;;;;5048252;28;19937;-73
2023/01/12 12:03:27;;;;;;;;;;;10.90;99.90;;;;;;5035212;28;19925;-74
2023/01/12 12:06:03;;;;;;;;;;;10.90;99.90;;;;;;5033990;28;20015;-73
2023/01/12 12:08:49;;;;;;;;;;;10.90;99.90;;;;;;5003333;28;20455;-74
2023/01/12 12:11:18;;;;;;;;;;;10.90;99.90;;;;;;5029409;28;20002;-74
2023/01/12 12:14:03;;;;;;;;;;;10.90;99.90;;;;;;5042547;28;19938;-74
2023/01/12 12:16:28;;;;;;;;;;;10.90;99.90;;;;;;5021962;28;19925;-74
2023/01/12 12:19:03;;;;;;;;;;;11.00;99.90;;;;;;5030040;28;19924;-73
2023/01/12 12:21:28;;;;;;;;;;;11.00;99.90;;;;;;5025521;28;19926;-74
2023/01/12 12:24:13;;;;;;;;;;;11.00;99.90;;;;;;5031586;28;20487;-74
2023/01/12 12:26:47;;;;;;;;;;;11.00;99.90;;;;;;5023089;28;19925;-74
2023/01/12 12:29:12;;;;;;;;;;;11.00;99.90;;;;;;5010351;28;19927;-73
2023/01/12 12:31:50;;;;;;;;;;;11.00;99.90;;;;;;4998425;28;19928;-73
2023/01/12 12:34:36;;;;;;;;;;;10.90;99.90;;;;;;5015200;28;20004;-74
2023/01/12 12:37:20;;;;;;;;;;;10.90;99.90;;;;;;5028850;28;19929;-73
2023/01/12 12:39:49;;;;;;;;;;;10.80;99.90;;;;;;5038635;28;19921;-74
2023/01/12 12:45:20;;;;;;;;;;;10.70;99.90;;;;;;5025718;28;19948;-74
2023/01/12 12:47:57;;;;;;;;;;;10.60;99.90;;;;;;5011526;28;19978;-73
2023/01/12 12:50:23;;;;;;;;;;;10.60;99.90;;;;;;5010069;28;20004;-74
2023/01/12 12:52:59;;;;;;;;;;;10.60;99.90;;;;;;5032649;28;20000;-73
2023/01/12 12:55:25;;;;;;;;;;;10.60;99.90;;;;;;5028487;28;19925;-74
2023/01/12 12:58:01;;;;;;;;;;;10.60;99.90;;;;;;5037114;28;19921;-73
2023/01/12 13:00:41;;;;;;;;;;;10.70;99.90;;;;;;5028791;28;20353;-73
2023/01/12 13:03:10;;;;;;;;;;;10.70;99.90;;;;;;5023154;28;20007;-73
2023/01/12 13:05:40;;;;;;;;;;;10.70;99.90;;;;;;5028765;28;19971;-73
2023/01/12 13:08:17;;;;;;;;;;;10.70;99.90;;;;;;5026021;28;20309;-74
2023/01/12 13:10:51;;;;;;;;;;;10.80;99.90;;;;;;5009618;28;20462;-74
2023/01/12 13:13:36;;;;;;;;;;;10.80;99.90;;;;;;5008155;28;20239;-73
2023/01/12 13:16:14;;;;;;;;;;;10.80;99.90;;;;;;5012336;28;19921;-74
2023/01/12 13:18:58;;;;;;;;;;;10.80;99.90;;;;;;5034985;28;19968;-73
2023/01/12 13:21:40;;;;;;;;;;;10.80;99.90;;;;;;5021864;28;19932;-73
2023/01/12 13:24:08;;;;;;;;;;;10.80;99.90;;;;;;5011080;28;19927;-73
2023/01/12 13:26:34;;;;;;;;;;;10.90;99.90;;;;;;5027475;28;19925;-73
2023/01/12 13:29:19;;;;;;;;;;;10.90;99.90;;;;;;5014977;28;19935;-74
2023/01/12 13:31:44;;;;;;;;;;;10.90;99.90;;;;;;5032221;28;19936;-74
2023/01/12 13:34:29;;;;;;;;;;;10.90;99.90;;;;;;5028051;28;19929;-73
2023/01/12 13:37:10;;;;;;;;;;;10.90;99.90;;;;;;5040708;28;19974;-73
2023/01/12 13:39:38;;;;;;;;;;;11.00;99.90;;;;;;5030378;28;19929;-74
2023/01/12 13:44:50;;;;;;;;;;;10.90;99.90;;;;;;5029511;28;20157;-73
2023/01/12 13:47:30;;;;;;;;;;;10.90;99.90;;;;;;5034524;28;20046;-74
2023/01/12 13:49:57;;;;;;;;;;;10.90;99.90;;;;;;5016020;28;19928;-74
2023/01/12 13:52:30;;;;;;;;;;;10.90;99.90;;;;;;5022403;28;19929;-74
2023/01/12 13:54:57;;;;;;;;;;;10.80;99.90;;;;;;5036819;28;19928;-74
2023/01/12 13:57:24;;;;;;;;;;;10.80;99.90;;;;;;5039511;28;19977;-74
2023/01/12 14:00:03;;;;;;;;;;;10.70;99.90;;;;;;5044444;28;19929;-74
2023/01/12 14:02:31;;;;;;;;;;;10.70;99.90;;;;;;5035224;28;19925;-75
2023/01/12 14:05:05;;;;;;;;;;;10.60;99.90;;;;;;5038757;28;19931;-76
2023/01/12 14:07:43;;;;;;;;;;;10.60;99.90;;;;;;5042472;28;19925;-77
2023/01/12 14:10:23;;;;;;;;;;;10.50;99.90;;;;;;5035856;28;19948;-77
2023/01/12 14:13:04;;;;;;;;;;;10.50;99.90;;;;;;5022778;28;19932;-77
2023/01/12 14:18:22;;;;;;;;;;;10.40;99.90;;;;;;5042510;28;20022;-78
2023/01/12 14:20:58;;;;;;;;;;;10.40;99.90;;;;;;5011012;28;19921;-77
2023/01/12 14:23:42;;;;;;;;;;;10.40;99.90;;;;;;5013090;28;19928;-78
2023/01/12 14:26:08;;;;;;;;;;;10.40;99.90;;;;;;5029700;28;19932;-78
2023/01/12 14:28:34;;;;;;;;;;;10.40;99.90;;;;;;5007173;28;19921;-78
2023/01/12 14:31:00;;;;;;;;;;;10.40;99.90;;;;;;5027671;28;19921;-78
2023/01/12 14:33:31;;;;;;;;;;;10.40;99.90;;;;;;5032560;28;20277;-78
2023/01/12 14:36:04;;;;;;;;;;;10.40;99.90;;;;;;5030591;28;19927;-78
2023/01/12 14:38:33;;;;;;;;;;;10.40;99.90;;;;;;5011805;28;20229;-79
2023/01/12 14:41:04;;;;;;;;;;;10.40;99.90;;;;;;5032214;28;19925;-78
2023/01/12 14:46:26;;;;;;;;;;;10.40;99.90;;;;;;5025765;28;19933;-78
2023/01/12 14:49:00;;;;;;;;;;;10.40;99.90;;;;;;5024910;28;19928;-78
2023/01/12 14:51:27;;;;;;;;;;;10.40;99.90;;;;;;5008985;28;19971;-78
2023/01/12 14:53:57;;;;;;;;;;;10.40;99.90;;;;;;5015368;28;19929;-78
2023/01/12 14:56:25;;;;;;;;;;;10.40;99.90;;;;;;5025761;28;19921;-78
2023/01/12 14:58:50;;;;;;;;;;;10.30;99.90;;;;;;5025599;28;20348;-79
2023/01/12 15:01:30;;;;;;;;;;;10.30;99.90;;;;;;5009226;28;20007;-79
2023/01/12 15:03:56;;;;;;;;;;;10.30;99.90;;;;;;5039633;28;19929;-79
2023/01/12 15:06:22;;;;;;;;;;;10.80;99.90;;;;;;5009709;28;20321;-79
2023/01/12 15:08:52;;;;;;;;;;;10.30;99.90;;;;;;5029600;28;20169;-79
2023/01/12 15:11:27;;;;;;;;;;;10.30;99.90;;;;;;5011154;28;19928;-79
2023/01/12 15:13:59;;;;;;;;;;;10.30;99.90;;;;;;5022798;28;20370;-78
2023/01/12 15:27:25;;;;;;;;;;;10.20;99.90;;;;;;4995422;28;19968;-77
2023/01/12 15:29:51;;;;;;;;;;;10.20;99.90;;;;;;5004767;28;19975;-77
2023/01/12 15:32:18;;;;;;;;;;;10.20;99.90;;;;;;5024442;28;19960;-77
2023/01/12 15:34:43;;;;;;;;;;;10.20;99.90;;;;;;5026442;28;20346;-78